Time;durP1;ratioP1;P1;durP2;ratioP2;P2;SDS_P1;SDS_P2;PMS_P1;PMS_P2;Temp;Humidity;BMP_temperature;BMP_pressure;BME280_temperature;BME280_humidity;BME280_pressure;Samples;Min_cycle;Max_cycle;Signal;HPM_P1;HPM_P2
2023/08/15 00:01:06;;;;;;;7.03;4.05;;;;;;;19.35;91.53;101132.00;6190655;23;20083;-57
2023/08/15 00:03:32;;;;;;;8.82;4.30;;;;;;;19.46;90.37;101143.94;6215662;23;20310;-57
2023/08/15 00:05:58;;;;;;;8.73;4.53;;;;;;;19.37;91.77;101145.22;6215837;23;20004;-57
2023/08/15 00:08:23;;;;;;;7.45;4.18;;;;;;;19.20;92.43;101136.16;6190667;23;20008;-57
2023/08/15 00:10:49;;;;;;;10.52;5.03;;;;;;;19.30;92.21;101147.25;6190151;23;20012;-57
2023/08/15 00:13:14;;;;;;;10.00;5.15;;;;;;;19.25;92.38;101138.63;6191167;23;20103;-57
2023/08/15 00:15:40;;;;;;;10.77;4.65;;;;;;;19.18;92.24;101142.50;6216302;23;20418;-58
2023/08/15 00:18:06;;;;;;;7.80;4.90;;;;;;;19.11;92.84;101125.09;6190398;23;20012;-59
2023/08/15 00:20:31;;;;;;;7.35;4.30;;;;;;;19.02;92.71;101116.59;6189866;23;20445;-59
2023/08/15 00:22:57;;;;;;;9.77;4.78;;;;;;;19.11;92.64;101114.47;6166342;22;20347;-60
2023/08/15 00:25:22;;;;;;;8.35;4.80;;;;;;;19.07;93.35;101110.22;6189910;23;20009;-59
2023/08/15 00:27:48;;;;;;;9.40;4.90;;;;;;;19.00;92.38;101110.44;6190875;23;20008;-59
2023/08/15 00:30:13;;;;;;;7.47;5.05;;;;;;;19.06;92.62;101116.44;6190990;23;20011;-59
2023/08/15 00:32:39;;;;;;;9.38;4.60;;;;;;;19.01;92.85;101108.69;6215874;23;20062;-60
2023/08/15 00:35:05;;;;;;;8.65;5.03;;;;;;;19.01;93.80;101125.47;6190792;23;20007;-59
2023/08/15 00:37:34;;;;;;;9.18;5.93;;;;;;;18.96;94.29;101127.44;6191743;23;20162;-59
2023/08/15 00:40:00;;;;;;;9.35;4.95;;;;;;;18.96;94.46;101127.44;6216538;23;20039;-59
2023/08/15 00:42:26;;;;;;;9.65;4.95;;;;;;;18.90;94.89;101114.44;6214487;23;20012;-57
2023/08/15 00:44:51;;;;;;;7.65;4.95;;;;;;;18.83;95.44;101121.78;6216414;23;20058;-57
2023/08/15 00:47:19;;;;;;;7.82;5.25;;;;;;;18.70;95.94;101121.44;6190855;23;20079;-57
2023/08/15 00:49:45;;;;;;;6.63;5.00;;;;;;;18.58;96.98;101115.75;6216216;23;20105;-57
2023/08/15 00:52:13;;;;;;;10.65;5.32;;;;;;;18.58;97.36;101121.06;6215239;23;20044;-57
2023/08/15 00:54:42;;;;;;;8.65;5.25;;;;;;;18.55;97.66;101122.06;6242824;22;20375;-59
2023/08/15 00:57:10;;;;;;;8.02;5.07;;;;;;;18.53;97.09;101126.53;6215377;23;20092;-59
2023/08/15 00:59:36;;;;;;;9.07;5.68;;;;;;;18.54;96.46;101136.22;6216604;23;20329;-59
2023/08/15 01:02:02;;;;;;;10.93;5.45;;;;;;;18.57;96.32;101135.25;6215779;23;20040;-59
2023/08/15 01:04:28;;;;;;;9.73;5.07;;;;;;;18.54;96.53;101133.59;6190451;23;20142;-59
2023/08/15 01:06:56;;;;;;;8.18;4.70;;;;;;;18.57;95.91;101140.56;6166565;23;20008;-59
2023/08/15 01:09:21;;;;;;;10.02;5.55;;;;;;;18.53;96.44;101129.19;6191106;23;20024;-60
2023/08/15 01:12:01;;;;;;;6.95;5.07;;;;;;;18.67;95.27;101132.16;6215735;23;20394;-59
2023/08/15 01:14:31;;;;;;;10.50;5.27;;;;;;;18.66;95.81;101132.22;6216553;23;20046;-60
2023/08/15 01:16:58;;;;;;;7.43;5.18;;;;;;;18.73;95.34;101127.53;6216406;23;20000;-59
2023/08/15 01:19:29;;;;;;;8.73;5.63;;;;;;;18.68;95.94;101122.41;6166648;23;20042;-59
2023/08/15 01:21:57;;;;;;;8.40;5.05;;;;;;;18.64;95.55;101123.47;6216739;23;20067;-59
2023/08/15 01:24:24;;;;;;;8.27;5.30;;;;;;;18.68;94.49;101117.97;6189719;23;20342;-59
2023/08/15 01:26:49;;;;;;;8.60;5.43;;;;;;;18.70;93.73;101110.81;6166335;23;20095;-60
2023/08/15 01:29:15;;;;;;;9.60;5.45;;;;;;;18.66;94.31;101118.94;6190741;23;20343;-60
2023/08/15 01:31:53;;;;;;;11.30;5.70;;;;;;;18.63;93.43;101119.97;6216692;23;20023;-59
2023/08/15 01:34:25;;;;;;;11.82;5.65;;;;;;;18.62;92.42;101128.84;6215564;23;20403;-59
2023/08/15 01:36:56;;;;;;;11.65;5.70;;;;;;;18.60;90.67;101128.00;6217675;23;20000;-59
2023/08/15 01:39:27;;;;;;;8.90;5.10;;;;;;;18.59;89.91;101138.69;6217874;23;20381;-60
2023/08/15 01:41:53;;;;;;;9.32;5.35;;;;;;;18.56;89.37;101150.31;6216786;23;20023;-57
2023/08/15 01:44:20;;;;;;;10.00;4.85;;;;;;;18.47;88.18;101161.28;6168215;23;20023;-57
2023/08/15 01:46:46;;;;;;;8.68;4.85;;;;;;;18.43;88.40;101176.47;6168171;23;20039;-57
2023/08/15 01:49:13;;;;;;;8.02;5.00;;;;;;;18.38;88.35;101182.88;6192608;23;20415;-57
2023/08/15 01:51:39;;;;;;;8.70;4.90;;;;;;;18.41;88.38;101188.06;6212924;22;20175;-58
2023/08/15 01:54:04;;;;;;;7.32;4.88;;;;;;;18.26;89.46;101185.09;6175501;23;20012;-57
2023/08/15 01:56:30;;;;;;;9.13;4.70;;;;;;;18.27;88.54;101180.63;6162386;23;20046;-57
2023/08/15 01:58:55;;;;;;;11.25;5.03;;;;;;;18.18;89.02;101189.81;6183433;23;20036;-56
2023/08/15 02:03:48;;;;;;;11.05;5.50;;;;;;;18.12;90.02;101195.38;6207352;23;20021;-59
2023/08/15 02:06:14;;;;;;;11.73;5.47;;;;;;;18.21;89.00;101192.34;6142197;22;20026;-57
2023/08/15 02:08:40;;;;;;;11.82;5.50;;;;;;;18.17;89.58;101190.72;6162808;23;20399;-58
2023/08/15 02:11:05;;;;;;;10.98;4.95;;;;;;;18.16;89.65;101195.19;6186716;23;20016;-58
2023/08/15 02:13:32;;;;;;;9.77;5.53;;;;;;;18.13;90.16;101195.31;6158182;23;20012;-58
2023/08/15 02:15:58;;;;;;;8.40;5.28;;;;;;;18.16;89.93;101205.78;6134181;23;20023;-56
2023/08/15 02:18:27;;;;;;;10.00;5.45;;;;;;;18.08;90.75;101207.00;6155869;23;20004;-56
2023/08/15 02:20:53;;;;;;;10.50;5.47;;;;;;;18.10;90.44;101215.75;6156682;23;20016;-56
2023/08/15 02:23:18;;;;;;;13.68;5.57;;;;;;;18.05;90.84;101215.94;6162882;23;20097;-58
2023/08/15 02:25:43;;;;;;;7.88;5.25;;;;;;;17.98;91.31;101214.44;6108015;23;20469;-58
2023/08/15 02:28:09;;;;;;;10.95;5.35;;;;;;;18.00;91.46;101225.84;6130195;23;20321;-58
2023/08/15 02:33:10;;;;;;;10.05;5.55;;;;;;;17.92;91.45;101214.66;6216557;22;20028;-57
2023/08/15 02:35:39;;;;;;;8.70;5.47;;;;;;;17.91;90.78;101215.56;6192305;23;20008;-56
2023/08/15 02:38:04;;;;;;;7.60;5.13;;;;;;;17.87;91.40;101227.19;6217001;23;20016;-58
2023/08/15 02:40:30;;;;;;;8.95;5.28;;;;;;;17.83;91.16;101224.63;6215841;23;20012;-56
2023/08/15 02:42:55;;;;;;;9.63;5.28;;;;;;;17.79;90.72;101212.41;6164576;23;20056;-59
2023/08/15 02:45:21;;;;;;;9.80;5.30;;;;;;;17.75;91.27;101207.28;6145738;23;20112;-57
2023/08/15 02:47:46;;;;;;;12.55;5.32;;;;;;;17.72;91.17;101210.06;6167570;23;20060;-58
2023/08/15 02:50:12;;;;;;;10.05;5.03;;;;;;;17.83;89.81;101208.72;6149991;23;20048;-56
2023/08/15 02:52:38;;;;;;;9.15;4.90;;;;;;;17.76;90.14;101206.38;6187763;23;20020;-56
2023/08/15 02:55:04;;;;;;;9.00;4.50;;;;;;;17.61;90.80;101207.75;6181617;23;20013;-56
2023/08/15 02:57:30;;;;;;;8.10;4.60;;;;;;;17.72;90.31;101212.69;6132351;23;20053;-56
2023/08/15 02:59:56;;;;;;;11.15;4.43;;;;;;;17.71;90.47;101213.63;6132986;23;20021;-56
2023/08/15 03:02:22;;;;;;;9.73;4.72;;;;;;;17.57;90.75;101212.31;6133043;23;20017;-56
2023/08/15 03:04:47;;;;;;;11.40;4.93;;;;;;;17.65;90.35;101220.84;6132742;23;20016;-56
2023/08/15 03:07:13;;;;;;;9.52;4.30;;;;;;;17.64;90.18;101224.44;6132784;23;20063;-56
2023/08/15 03:09:38;;;;;;;15.18;4.90;;;;;;;17.57;90.26;101228.22;6108660;23;20017;-56
2023/08/15 03:12:04;;;;;;;9.32;4.57;;;;;;;17.56;90.51;101228.28;6106590;23;20019;-56
2023/08/15 03:14:29;;;;;;;11.32;5.03;;;;;;;17.45;91.05;101223.34;6132593;23;20016;-57
2023/08/15 03:16:55;;;;;;;10.50;4.45;;;;;;;17.38;91.62;101216.53;6132925;23;20485;-58
2023/08/15 03:19:21;;;;;;;11.80;4.13;;;;;;;17.38;91.83;101214.72;6132589;23;20084;-58
2023/08/15 03:21:46;;;;;;;10.05;4.78;;;;;;;17.30;92.13;101222.94;6156092;23;20522;-58
2023/08/15 03:24:12;;;;;;;8.70;4.35;;;;;;;17.25;92.85;101219.56;6157397;23;20092;-58
2023/08/15 03:26:37;;;;;;;9.75;4.70;;;;;;;17.18;92.73;101226.00;6155874;23;20056;-56
2023/08/15 03:29:04;;;;;;;10.30;4.88;;;;;;;17.15;93.07;101226.09;6107869;23;20355;-56
2023/08/15 03:31:29;;;;;;;8.82;4.60;;;;;;;17.21;92.64;101225.91;6107853;23;20005;-56
2023/08/15 03:33:55;;;;;;;8.05;4.43;;;;;;;17.12;92.85;101212.97;6132218;23;20016;-56
2023/08/15 03:36:20;;;;;;;9.68;4.95;;;;;;;17.14;93.20;101216.44;6132769;23;20083;-56
2023/08/15 03:38:46;;;;;;;8.63;4.18;;;;;;;17.10;93.61;101214.81;6108313;23;20043;-56
2023/08/15 03:41:12;;;;;;;11.43;4.95;;;;;;;17.13;93.13;101223.50;6156249;23;20019;-56
2023/08/15 03:43:37;;;;;;;11.80;4.60;;;;;;;17.04;93.71;101223.81;6182639;23;20374;-56
2023/08/15 03:46:04;;;;;;;11.98;4.78;;;;;;;16.86;94.10;101219.94;6132373;23;20035;-56
2023/08/15 03:48:32;;;;;;;9.18;4.93;;;;;;;16.99;93.72;101224.88;6157402;23;20004;-56
2023/08/15 03:51:01;;;;;;;10.55;5.38;;;;;;;16.93;93.94;101223.28;6133072;23;20017;-57
2023/08/15 03:53:26;;;;;;;12.60;5.20;;;;;;;16.89;94.14;101222.50;6156417;23;20001;-56
2023/08/15 03:55:53;;;;;;;12.77;5.30;;;;;;;16.86;94.35;101219.94;6131701;23;20020;-56
2023/08/15 03:58:19;;;;;;;9.95;4.70;;;;;;;16.95;93.63;101226.75;6108417;23;20088;-56
2023/08/15 04:00:45;;;;;;;10.38;5.05;;;;;;;16.83;94.83;101220.03;6156439;23;20087;-56
2023/08/15 04:03:11;;;;;;;9.15;5.03;;;;;;;16.76;95.11;101229.94;6156856;23;20036;-56
2023/08/15 04:05:36;;;;;;;12.57;5.18;;;;;;;16.82;94.57;101223.59;6156316;23;20007;-56
2023/08/15 04:08:05;;;;;;;9.48;4.95;;;;;;;16.70;95.26;101224.84;6108062;23;20028;-56
2023/08/15 04:10:31;;;;;;;11.77;4.55;;;;;;;16.78;94.96;101222.84;6132214;23;20056;-56
2023/08/15 04:13:01;;;;;;;9.55;4.93;;;;;;;16.67;95.98;101230.25;6107333;23;20112;-57
2023/08/15 04:15:26;;;;;;;10.52;4.57;;;;;;;16.77;95.05;101226.38;6156569;23;20009;-58
2023/08/15 04:17:52;;;;;;;9.43;4.68;;;;;;;16.73;95.36;101232.69;6107267;23;20009;-56
2023/08/15 04:20:17;;;;;;;11.30;5.00;;;;;;;16.70;95.20;101229.28;6156486;23;20020;-56
2023/08/15 04:22:42;;;;;;;9.48;4.80;;;;;;;16.69;95.60;101216.97;6132074;23;20352;-58
2023/08/15 04:25:09;;;;;;;11.75;5.30;;;;;;;16.75;95.74;101222.94;6155119;23;20425;-56
2023/08/15 04:27:36;;;;;;;10.38;5.07;;;;;;;16.70;96.15;101224.00;6131695;23;20447;-56
2023/08/15 04:30:04;;;;;;;12.15;5.15;;;;;;;16.67;96.79;101226.75;6156462;23;20036;-56
2023/08/15 04:32:29;;;;;;;13.23;5.63;;;;;;;16.66;96.80;101217.06;6155927;23;20009;-56
2023/08/15 04:34:55;;;;;;;10.70;5.13;;;;;;;16.52;97.36;101228.94;6104517;23;20024;-57
2023/08/15 04:37:20;;;;;;;12.15;5.68;;;;;;;16.59;96.81;101234.91;6131582;23;20017;-56
2023/08/15 04:39:46;;;;;;;13.35;5.40;;;;;;;16.54;96.82;101235.03;6132149;23;20008;-56
2023/08/15 04:42:11;;;;;;;13.73;5.47;;;;;;;16.45;97.51;101245.91;6107624;23;20351;-56
2023/08/15 04:44:37;;;;;;;9.25;5.50;;;;;;;16.44;97.55;101247.69;6131361;23;20013;-56
2023/08/15 04:47:02;;;;;;;11.75;5.72;;;;;;;16.53;97.14;101246.53;6107265;23;20044;-56
2023/08/15 04:49:27;;;;;;;12.98;6.05;;;;;;;16.46;97.63;101252.91;6131574;23;20008;-56
2023/08/15 04:51:53;;;;;;;10.52;5.75;;;;;;;16.50;97.71;101253.72;6107415;23;20016;-56
2023/08/15 04:54:18;;;;;;;15.30;6.43;;;;;;;16.54;97.87;101266.78;6156831;23;20019;-56
2023/08/15 04:56:44;;;;;;;10.85;5.80;;;;;;;16.54;97.95;101273.88;6129491;23;20071;-56
2023/08/15 04:59:09;;;;;;;12.48;5.80;;;;;;;16.48;98.41;101279.31;6108182;23;20009;-56
2023/08/15 05:01:34;;;;;;;14.13;7.00;;;;;;;16.45;98.83;101288.25;6131988;23;20012;-56
2023/08/15 05:04:00;;;;;;;12.50;6.30;;;;;;;16.43;98.85;101295.34;6130834;23;20019;-58
2023/08/15 05:06:26;;;;;;;10.93;6.20;;;;;;;16.42;98.85;101305.06;6131495;23;20021;-58
2023/08/15 05:08:51;;;;;;;14.73;6.32;;;;;;;16.44;99.22;101302.38;6131181;23;20093;-59
2023/08/15 05:11:16;;;;;;;15.05;6.80;;;;;;;16.51;99.13;101303.91;6155542;23;20013;-58
2023/08/15 05:13:42;;;;;;;9.63;5.82;;;;;;;16.49;98.97;101308.38;6108168;23;20513;-56
2023/08/15 05:16:07;;;;;;;11.73;6.20;;;;;;;16.44;98.69;101312.94;6107665;23;20401;-58
2023/08/15 05:18:33;;;;;;;12.25;6.43;;;;;;;16.72;98.30;101320.06;6154993;23;20009;-61
2023/08/15 05:20:58;;;;;;;11.88;6.70;;;;;;;16.92;98.40;101320.38;6157202;23;20013;-60
2023/08/15 05:23:23;;;;;;;9.73;6.03;;;;;;;17.77;95.69;101317.66;6133265;23;20266;-60
2023/08/15 05:25:49;;;;;;;13.50;6.07;;;;;;;18.46;91.70;101335.56;6156891;23;20009;-60
2023/08/15 05:28:14;;;;;;;8.43;5.03;;;;;;;19.28;87.94;101343.09;6132662;23;20021;-61
2023/08/15 05:30:40;;;;;;;11.57;6.15;;;;;;;20.14;83.07;101333.31;6107398;23;20013;-60
2023/08/15 05:33:06;;;;;;;11.13;5.50;;;;;;;21.00;78.89;101333.00;6156370;23;20012;-61
2023/08/15 05:35:31;;;;;;;11.27;4.93;;;;;;;21.76;76.74;101339.03;6157561;23;20016;-58
2023/08/15 05:37:57;;;;;;;8.63;4.95;;;;;;;22.84;71.68;101352.06;6108137;23;20009;-58
2023/08/15 05:40:22;;;;;;;10.75;5.07;;;;;;;23.82;68.38;101350.06;6131268;23;20343;-58
2023/08/15 05:42:48;;;;;;;9.43;5.25;;;;;;;24.69;64.63;101352.88;6157363;23;20016;-58
2023/08/15 05:45:14;;;;;;;8.50;4.75;;;;;;;25.36;62.77;101339.63;6109450;23;20047;-59
2023/08/15 05:47:40;;;;;;;10.48;4.85;;;;;;;25.70;59.89;101329.31;6158445;23;20016;-58
2023/08/15 05:50:06;;;;;;;10.70;4.20;;;;;;;26.94;57.95;101336.81;6156057;23;20319;-58
2023/08/15 05:52:31;;;;;;;8.48;4.90;;;;;;;27.26;55.30;101345.19;6158285;23;20009;-60
2023/08/15 05:54:57;;;;;;;9.55;4.53;;;;;;;28.22;52.75;101348.72;6133821;23;20021;-60
2023/08/15 05:57:23;;;;;;;8.52;4.25;;;;;;;28.23;51.60;101347.75;6157517;23;20005;-61
2023/08/15 05:59:49;;;;;;;7.28;4.30;;;;;;;28.00;51.69;101360.31;6109200;23;20020;-59
2023/08/15 06:02:14;;;;;;;8.05;4.90;;;;;;;28.40;50.63;101362.56;6158617;23;20020;-58
2023/08/15 06:04:40;;;;;;;10.48;3.90;;;;;;;28.62;49.74;101361.75;6133718;23;20009;-59
2023/08/15 06:07:07;;;;;;;8.75;4.53;;;;;;;29.34;48.56;101364.97;6133036;23;20523;-56
2023/08/15 06:09:32;;;;;;;12.07;5.00;;;;;;;29.73;46.85;101368.00;6157061;23;20005;-56
2023/08/15 06:11:58;;;;;;;9.50;4.20;;;;;;;30.40;46.15;101366.72;6130883;23;20513;-59
2023/08/15 06:14:24;;;;;;;8.95;4.65;;;;;;;31.21;43.59;101367.75;6156943;23;20020;-59
2023/08/15 06:16:49;;;;;;;10.48;4.80;;;;;;;30.87;43.97;101366.19;6133474;23;20040;-59
2023/08/15 06:19:15;;;;;;;9.70;4.60;;;;;;;32.29;42.58;101373.97;6108800;23;20009;-59
2023/08/15 06:21:43;;;;;;;7.13;3.83;;;;;;;32.66;41.38;101383.97;6132087;23;20024;-59
2023/08/15 06:24:09;;;;;;;8.23;4.32;;;;;;;33.11;40.69;101388.59;6133564;23;20107;-59
2023/08/15 06:26:37;;;;;;;8.63;3.90;;;;;;;33.80;38.49;101383.53;6107810;23;20021;-59
2023/08/15 06:29:05;;;;;;;9.10;4.22;;;;;;;33.52;39.46;101398.19;6110176;23;20427;-59
2023/08/15 06:31:31;;;;;;;7.57;4.20;;;;;;;32.39;40.62;101387.50;6157581;23;20009;-60
2023/08/15 06:33:57;;;;;;;9.95;4.53;;;;;;;31.67;43.08;101392.47;6108457;23;20020;-59
2023/08/15 06:36:22;;;;;;;8.35;4.13;;;;;;;30.81;43.78;101390.28;6133681;23;20013;-59
2023/08/15 06:38:50;;;;;;;8.30;4.07;;;;;;;30.51;44.24;101394.69;6157785;23;20120;-59
2023/08/15 06:41:16;;;;;;;8.55;4.05;;;;;;;29.53;46.64;101384.03;6108333;23;20387;-59
2023/08/15 06:43:41;;;;;;;11.15;4.32;;;;;;;28.58;50.59;101392.59;6132273;23;20021;-59
2023/08/15 06:46:07;;;;;;;11.68;3.90;;;;;;;28.71;51.37;101391.66;6157253;23;20016;-59
2023/08/15 06:48:32;;;;;;;9.75;4.50;;;;;;;27.91;51.33;101393.31;6157088;23;20111;-56
2023/08/15 06:50:58;;;;;;;7.72;3.78;;;;;;;28.15;52.74;101390.59;6132452;23;20348;-57
2023/08/15 06:53:23;;;;;;;8.82;4.25;;;;;;;27.83;52.39;101402.84;6157575;23;20382;-56
2023/08/15 06:55:49;;;;;;;10.02;4.80;;;;;;;27.17;54.39;101405.06;6107988;23;20442;-56
2023/08/15 06:58:15;;;;;;;9.70;5.05;;;;;;;27.05;54.68;101406.81;6157722;23;20013;-56
2023/08/15 07:00:42;;;;;;;10.20;4.97;;;;;;;26.99;55.35;101396.50;6108810;23;20068;-56
2023/08/15 07:03:08;;;;;;;10.55;4.88;;;;;;;26.63;53.54;101398.97;6155127;23;20009;-56
2023/08/15 07:05:34;;;;;;;10.75;4.88;;;;;;;27.19;52.74;101400.41;6107316;23;20026;-56
2023/08/15 07:08:00;;;;;;;11.60;5.15;;;;;;;27.65;53.35;101399.69;6131970;23;20023;-56
2023/08/15 07:10:25;;;;;;;8.30;4.05;;;;;;;29.10;50.13;101401.06;6155711;23;20339;-59
2023/08/15 07:12:51;;;;;;;9.82;4.20;;;;;;;30.31;45.29;101402.66;6156491;23;20005;-59
2023/08/15 07:15:17;;;;;;;9.35;4.57;;;;;;;30.35;46.31;101405.97;6131333;23;20020;-59
2023/08/15 07:17:42;;;;;;;7.97;4.38;;;;;;;29.53;46.67;101410.19;6132287;23;20004;-59
2023/08/15 07:20:09;;;;;;;7.55;4.05;;;;;;;29.43;46.68;101409.25;6106454;23;20020;-60
2023/08/15 07:22:35;;;;;;;7.22;3.58;;;;;;;28.82;49.50;101405.13;6130054;23;20044;-59
2023/08/15 07:25:01;;;;;;;11.27;4.95;;;;;;;28.32;51.77;101414.38;6132367;23;20009;-59
2023/08/15 07:27:27;;;;;;;8.90;4.30;;;;;;;27.69;50.77;101421.88;6155886;23;20036;-59
2023/08/15 07:29:52;;;;;;;9.60;4.13;;;;;;;27.22;51.71;101419.00;6156899;23;20009;-58
2023/08/15 07:32:18;;;;;;;9.15;4.30;;;;;;;26.59;53.12;101416.31;6132073;23;20116;-59
2023/08/15 07:34:43;;;;;;;9.02;4.50;;;;;;;26.40;54.95;101415.88;6132435;23;20023;-59
2023/08/15 07:37:10;;;;;;;11.63;4.30;;;;;;;25.98;55.61;101417.84;6130870;23;20016;-59
2023/08/15 07:39:35;;;;;;;14.27;4.65;;;;;;;25.69;56.45;101418.00;6156727;23;20033;-59
2023/08/15 07:42:01;;;;;;;11.40;4.68;;;;;;;25.42;57.82;101421.53;6107813;23;20009;-59
2023/08/15 07:44:27;;;;;;;10.30;4.95;;;;;;;25.68;59.08;101429.69;6157268;23;20013;-59
2023/08/15 07:46:52;;;;;;;9.60;4.20;;;;;;;25.25;59.71;101426.13;6132751;23;20009;-59
2023/08/15 07:49:18;;;;;;;9.48;3.78;;;;;;;25.16;59.04;101428.56;6129959;23;20506;-59
2023/08/15 07:51:44;;;;;;;8.57;4.13;;;;;;;24.90;59.88;101426.56;6133099;23;20231;-59
2023/08/15 07:54:09;;;;;;;12.82;5.30;;;;;;;24.64;60.86;101424.63;6132317;23;20021;-59
2023/08/15 07:56:34;;;;;;;10.57;4.35;;;;;;;24.46;61.86;101419.44;6106791;23;20009;-58
2023/08/15 07:59:00;;;;;;;10.15;4.20;;;;;;;24.23;61.36;101418.16;6131734;23;20360;-58
2023/08/15 08:01:25;;;;;;;9.98;4.18;;;;;;;24.11;61.33;101424.25;6132562;23;20428;-59
2023/08/15 08:03:51;;;;;;;10.10;3.65;;;;;;;24.00;63.51;101439.13;6108178;23;20298;-58
2023/08/15 08:06:16;;;;;;;7.40;3.72;;;;;;;23.75;62.70;101441.47;6108109;23;20012;-58
2023/08/15 08:08:42;;;;;;;7.85;3.60;;;;;;;23.75;63.55;101442.34;6157595;23;20020;-58
2023/08/15 08:11:07;;;;;;;12.38;4.32;;;;;;;23.55;65.09;101443.50;6107065;23;20016;-58
2023/08/15 08:13:33;;;;;;;13.18;4.38;;;;;;;23.48;65.22;101442.97;6156804;23;20013;-58
2023/08/15 08:16:00;;;;;;;9.20;3.88;;;;;;;23.18;65.69;101451.75;6132947;23;20343;-58
2023/08/15 08:18:26;;;;;;;8.73;3.30;;;;;;;23.36;65.24;101449.03;6157611;23;20102;-58
2023/08/15 08:20:51;;;;;;;10.93;4.07;;;;;;;23.27;66.82;101444.19;6107287;23;20427;-58
2023/08/15 08:23:17;;;;;;;8.88;4.15;;;;;;;23.30;66.74;101454.72;6108775;23;20327;-58
2023/08/15 08:25:42;;;;;;;9.75;4.30;;;;;;;23.13;65.14;101443.16;6131707;23;20307;-59
2023/08/15 08:28:08;;;;;;;7.80;4.07;;;;;;;23.21;66.14;101450.75;6132839;23;20075;-56
2023/08/15 08:30:36;;;;;;;9.63;3.92;;;;;;;23.40;68.20;101455.91;6106996;23;20037;-56
2023/08/15 08:33:03;;;;;;;7.07;3.78;;;;;;;23.51;68.37;101452.66;6132904;23;20340;-56
2023/08/15 08:35:29;;;;;;;10.75;3.60;;;;;;;23.24;67.87;101449.72;6183189;23;20079;-56
2023/08/15 08:37:55;;;;;;;8.23;3.65;;;;;;;23.13;67.66;101436.91;6132852;23;20021;-56
2023/08/15 08:40:21;;;;;;;8.35;4.28;;;;;;;23.03;67.99;101441.91;6131716;23;20439;-56
2023/08/15 08:42:46;;;;;;;7.50;3.47;;;;;;;23.10;67.54;101443.28;6132510;23;20016;-56
2023/08/15 08:45:12;;;;;;;10.05;3.58;;;;;;;23.07;69.00;101437.25;6107503;23;20017;-59
2023/08/15 08:47:39;;;;;;;8.38;3.53;;;;;;;23.13;68.34;101450.28;6157237;23;20025;-56
2023/08/15 08:50:09;;;;;;;8.45;4.20;;;;;;;23.26;68.01;101450.47;6153634;23;20021;-56
2023/08/15 08:52:40;;;;;;;8.45;3.45;;;;;;;23.10;69.79;101455.78;6156498;23;20005;-58
2023/08/15 08:55:07;;;;;;;9.77;3.70;;;;;;;23.15;70.12;101456.44;6157082;23;20036;-58
2023/08/15 08:57:37;;;;;;;11.27;4.10;;;;;;;23.19;68.24;101452.66;6156517;23;20009;-56
2023/08/15 09:00:09;;;;;;;11.25;3.80;;;;;;;23.05;67.81;101461.38;6133044;23;20024;-58
2023/08/15 09:02:35;;;;;;;10.48;4.03;;;;;;;23.16;68.19;101452.81;6156717;23;20386;-58
2023/08/15 09:05:04;;;;;;;9.13;3.05;;;;;;;22.98;68.29;101455.50;6132274;23;20020;-58
2023/08/15 09:07:33;;;;;;;9.45;3.80;;;;;;;22.91;69.25;101458.59;6128635;23;20092;-58
2023/08/15 09:09:58;;;;;;;9.77;3.78;;;;;;;23.18;69.63;101458.94;6132959;23;20023;-59
2023/08/15 09:12:38;;;;;;;9.48;3.85;;;;;;;23.06;69.56;101456.88;6104139;23;20021;-58
2023/08/15 09:15:05;;;;;;;8.93;3.58;;;;;;;23.22;69.97;101460.50;6154050;23;20020;-58
2023/08/15 09:17:31;;;;;;;9.82;3.55;;;;;;;23.25;70.05;101464.81;6155246;23;20001;-58
2023/08/15 09:19:57;;;;;;;10.02;3.78;;;;;;;23.22;69.22;101465.00;6131839;23;20067;-59
2023/08/15 09:22:25;;;;;;;11.20;3.83;;;;;;;23.17;70.16;101470.56;6133059;23;20013;-59
2023/08/15 09:24:51;;;;;;;8.90;4.25;;;;;;;23.11;69.83;101471.75;6156829;23;20063;-59
2023/08/15 09:27:17;;;;;;;13.05;4.70;;;;;;;23.23;70.88;101485.41;6131433;23;20016;-58
2023/08/15 09:29:43;;;;;;;10.52;4.72;;;;;;;23.35;70.18;101484.75;6155888;23;20012;-58
2023/08/15 09:32:08;;;;;;;10.73;4.05;;;;;;;23.27;68.54;101482.47;6107860;23;20024;-58
2023/08/15 09:34:34;;;;;;;8.73;3.70;;;;;;;23.39;68.90;101491.66;6157158;23;20016;-58
2023/08/15 09:36:59;;;;;;;9.07;3.63;;;;;;;23.37;67.13;101482.84;6132003;23;20384;-58
2023/08/15 09:39:25;;;;;;;9.30;3.50;;;;;;;23.51;68.88;101482.91;6132168;23;20009;-58
2023/08/15 09:41:52;;;;;;;10.02;3.40;;;;;;;23.53;68.01;101491.75;6107174;23;20289;-58
2023/08/15 09:44:33;;;;;;;8.68;3.30;;;;;;;23.83;68.76;101495.41;6156922;23;20015;-58
2023/08/15 09:47:00;;;;;;;8.60;3.08;;;;;;;23.89;66.09;101488.88;6132368;23;20344;-58
2023/08/15 09:49:28;;;;;;;8.00;3.35;;;;;;;23.88;67.39;101496.06;6155909;23;20459;-59
2023/08/15 09:51:53;;;;;;;8.93;3.75;;;;;;;23.81;66.49;101492.84;6132066;23;20009;-58
2023/08/15 09:54:21;;;;;;;8.02;3.13;;;;;;;23.89;66.63;101495.09;6132432;23;20100;-58
2023/08/15 09:56:46;;;;;;;12.23;3.78;;;;;;;23.90;67.35;101509.34;6131972;23;20429;-58
2023/08/15 09:59:12;;;;;;;10.38;3.70;;;;;;;23.81;66.42;101498.19;6109750;23;20075;-58
2023/08/15 10:01:38;;;;;;;11.98;3.90;;;;;;;23.73;64.93;101508.47;6108206;23;20005;-58
2023/08/15 10:04:10;;;;;;;8.10;3.38;;;;;;;23.82;65.99;101507.94;6134260;23;20340;-58
2023/08/15 10:06:37;;;;;;;10.98;4.35;;;;;;;23.66;67.86;101510.63;6134264;23;20437;-56
2023/08/15 10:09:05;;;;;;;9.90;3.53;;;;;;;23.61;67.62;101507.34;6159132;23;20013;-56
2023/08/15 10:11:35;;;;;;;8.45;3.55;;;;;;;23.70;68.36;101527.38;6133071;23;20048;-56
2023/08/15 10:14:01;;;;;;;;;;;;;;;24.04;67.03;101520.97;6159292;23;20131;-56
2023/08/15 10:16:27;;;;;;;10.45;3.63;;;;;;;23.60;67.25;101523.50;6158482;23;19912;-56
2023/08/15 10:18:57;;;;;;;8.73;3.55;;;;;;;23.68;69.11;101521.25;6133994;23;20040;-57
2023/08/15 10:21:29;;;;;;;8.10;3.53;;;;;;;23.66;67.04;101524.03;6157603;23;20028;-57
2023/08/15 10:24:02;;;;;;;9.43;3.92;;;;;;;23.57;67.32;101527.19;6135233;23;20115;-56
2023/08/15 10:26:28;;;;;;;8.57;3.35;;;;;;;23.46;66.85;101527.81;6158025;23;20013;-56
2023/08/15 10:28:56;;;;;;;8.95;3.63;;;;;;;23.56;70.22;101532.63;6134272;23;20017;-56
2023/08/15 10:31:39;;;;;;;9.30;3.92;;;;;;;23.62;67.88;101533.16;6132800;23;20009;-56
2023/08/15 10:34:08;;;;;;;8.07;3.55;;;;;;;23.35;67.90;101532.88;6157734;23;20096;-56
2023/08/15 10:36:34;;;;;;;8.25;3.78;;;;;;;23.46;67.46;101538.50;6184209;23;20088;-56
2023/08/15 10:39:07;;;;;;;9.40;3.80;;;;;;;23.22;68.67;101545.19;6134153;23;20140;-56
2023/08/15 10:41:35;;;;;;;9.95;4.03;;;;;;;22.98;69.08;101549.03;6109638;23;20470;-56
2023/08/15 10:44:04;;;;;;;10.27;4.57;;;;;;;22.82;71.33;101540.97;6134057;23;20012;-56
2023/08/15 10:46:31;;;;;;;12.75;4.90;;;;;;;22.66;71.69;101543.56;6158274;23;20016;-56
2023/08/15 10:49:04;;;;;;;10.77;4.60;;;;;;;22.61;71.74;101542.09;6158427;23;20009;-56
2023/08/15 10:51:31;;;;;;;11.25;4.78;;;;;;;22.60;71.63;101537.72;6157479;23;20021;-56
2023/08/15 10:54:16;;;;;;;11.85;4.82;;;;;;;22.61;71.11;101534.06;6157786;23;20005;-56
2023/08/15 10:56:43;;;;;;;12.02;4.60;;;;;;;22.60;72.06;101529.69;6157176;23;20013;-58
2023/08/15 10:59:14;;;;;;;10.95;4.50;;;;;;;22.69;72.76;101528.34;6133961;23;20084;-58
2023/08/15 11:01:41;;;;;;;11.77;4.40;;;;;;;22.63;73.41;101535.72;6157411;23;20009;-58
2023/08/15 11:04:08;;;;;;;9.77;4.53;;;;;;;22.60;70.60;101540.38;6157176;23;20075;-58
2023/08/15 11:06:48;;;;;;;11.65;4.82;;;;;;;22.65;70.77;101544.50;6182357;23;20394;-56
2023/08/15 11:09:14;;;;;;;6.70;3.88;;;;;;;22.82;71.85;101524.94;6134843;23;20012;-56
2023/08/15 11:11:40;;;;;;;13.13;4.85;;;;;;;22.98;71.30;101534.81;6132396;23;20062;-58
2023/08/15 11:14:15;;;;;;;10.23;4.40;;;;;;;23.06;70.01;101534.41;6157654;23;20083;-56
2023/08/15 11:16:41;;;;;;;10.57;4.05;;;;;;;23.10;72.73;101522.59;6133281;23;20012;-57
2023/08/15 11:19:07;;;;;;;10.27;3.50;;;;;;;23.29;72.27;101523.38;6132937;23;20067;-56
2023/08/15 11:21:34;;;;;;;9.70;3.38;;;;;;;23.28;68.62;101523.47;6108465;23;20020;-57
2023/08/15 11:24:00;;;;;;;9.18;3.50;;;;;;;23.41;69.28;101534.34;6108863;23;20009;-58